Time;durP1;ratioP1;P1;durP2;ratioP2;P2;SDS_P1;SDS_P2;PMS_P1;PMS_P2;Temp;Humidity;BMP_temperature;BMP_pressure;BME280_temperature;BME280_humidity;BME280_pressure;Samples;Min_cycle;Max_cycle;Signal;HPM_P1;HPM_P2
2021/01/06 00:00:17;;;;;;;54.55;29.48;;;-1.40;88.70;;;;;;4976820;28;20030;-81
2021/01/06 00:02:43;;;;;;;38.33;22.52;;;-1.40;88.70;;;;;;4976748;28;20019;-81
2021/01/06 00:05:12;;;;;;;52.80;28.02;;;-1.40;87.90;;;;;;4976480;28;20030;-80
2021/01/06 00:07:44;;;;;;;51.13;27.45;;;-1.50;87.50;;;;;;4975236;28;20031;-80
2021/01/06 00:10:15;;;;;;;50.88;27.70;;;-1.60;88.00;;;;;;4976426;28;20053;-80
2021/01/06 00:12:41;;;;;;;48.47;25.60;;;-1.60;89.10;;;;;;4976881;28;20037;-79
2021/01/06 00:15:12;;;;;;;43.90;25.67;;;-1.60;88.50;;;;;;4977640;28;20023;-79
2021/01/06 00:17:38;;;;;;;52.65;27.95;;;-1.50;88.40;;;;;;4976971;28;20030;-83
2021/01/06 00:20:08;;;;;;;43.85;24.15;;;-1.60;88.20;;;;;;4976517;28;20396;-80
2021/01/06 00:22:34;;;;;;;48.80;25.88;;;-1.50;88.50;;;;;;4976806;28;20069;-80
2021/01/06 00:24:59;;;;;;;53.85;27.95;;;-1.60;88.60;;;;;;4976387;28;20500;-81
2021/01/06 00:27:25;;;;;;;45.75;25.63;;;-1.50;88.70;;;;;;4976251;28;20070;-81
2021/01/06 00:29:51;;;;;;;46.60;24.15;;;-1.50;88.70;;;;;;4981970;28;20019;-80
2021/01/06 00:32:19;;;;;;;44.10;24.83;;;-1.40;88.80;;;;;;4975554;28;20041;-79
2021/01/06 00:34:46;;;;;;;;;;;-1.40;88.70;;;;;;4966756;28;20022;-79
2021/01/06 00:37:15;;;;;;;43.03;23.27;;;-1.30;88.70;;;;;;4976208;28;19906;-81
2021/01/06 00:39:41;;;;;;;50.10;25.48;;;-1.30;88.40;;;;;;4976232;28;20411;-80
2021/01/06 00:42:07;;;;;;;43.97;23.38;;;-1.30;88.60;;;;;;4975824;28;20034;-80
2021/01/06 00:44:33;;;;;;;42.22;24.02;;;-1.30;88.70;;;;;;4976023;28;21488;-80
2021/01/06 00:46:59;;;;;;;36.17;21.80;;;-1.20;88.70;;;;;;4975818;28;20039;-81
2021/01/06 00:49:25;;;;;;;39.50;20.88;;;-1.20;88.60;;;;;;4958980;28;20118;-81
2021/01/06 00:51:51;;;;;;;39.63;22.40;;;-1.20;88.50;;;;;;4975948;28;20130;-81
2021/01/06 00:54:17;;;;;;;35.10;19.75;;;-1.10;88.70;;;;;;4975665;28;20094;-82
2021/01/06 00:56:43;;;;;;;37.45;19.13;;;-1.20;88.00;;;;;;4975797;28;20023;-80
2021/01/06 00:59:08;;;;;;;36.67;21.63;;;-1.20;88.00;;;;;;4975613;28;20392;-80
2021/01/06 01:01:34;;;;;;;35.50;20.02;;;-1.30;88.30;;;;;;4964611;28;20081;-78
2021/01/06 01:04:02;;;;;;;38.22;20.75;;;-1.30;88.50;;;;;;4978457;28;20031;-78
2021/01/06 01:06:30;;;;;;;41.80;22.55;;;-1.20;88.50;;;;;;4958585;28;20030;-81
2021/01/06 01:08:57;;;;;;;41.90;22.88;;;-1.30;88.50;;;;;;4975815;28;20030;-79
2021/01/06 01:11:23;;;;;;;34.53;20.77;;;-1.30;88.50;;;;;;4975954;28;20023;-77
2021/01/06 01:13:51;;;;;;;38.97;21.27;;;-1.30;88.40;;;;;;4973910;28;20444;-80
2021/01/06 01:16:18;;;;;;;46.47;24.85;;;-1.20;88.50;;;;;;4973927;28;20175;-80
2021/01/06 01:18:43;;;;;;;36.67;22.27;;;-1.20;88.60;;;;;;4959007;28;20492;-82
2021/01/06 01:21:09;;;;;;;37.60;21.23;;;-1.20;88.50;;;;;;4978606;28;20034;-80
2021/01/06 01:23:35;;;;;;;34.90;20.95;;;-1.20;88.50;;;;;;4974666;28;20086;-79
2021/01/06 01:26:02;;;;;;;34.17;21.58;;;-1.20;88.00;;;;;;4977658;28;20125;-81
2021/01/06 01:28:28;;;;;;;34.67;20.10;;;-1.30;88.00;;;;;;4977351;28;20038;-77
2021/01/06 01:30:56;;;;;;;32.88;18.70;;;-1.40;87.80;;;;;;4985779;28;20416;-78
2021/01/06 01:33:23;;;;;;;;;;;-1.40;88.30;;;;;;4964363;28;20055;-79
2021/01/06 01:35:49;;;;;;;32.30;18.15;;;-1.40;88.30;;;;;;4977743;28;20298;-80
2021/01/06 01:38:26;;;;;;;34.47;19.70;;;-1.50;88.30;;;;;;4976479;28;20042;-78
2021/01/06 01:41:01;;;;;;;31.25;18.33;;;-1.50;88.30;;;;;;4975776;28;20023;-79
2021/01/06 01:43:28;;;;;;;32.58;19.70;;;-1.40;88.20;;;;;;4957942;28;20118;-78
2021/01/06 01:45:54;;;;;;;32.95;18.27;;;-1.40;88.00;;;;;;4969839;28;20081;-78
2021/01/06 01:48:50;;;;;;;26.40;16.92;;;-1.40;88.00;;;;;;4957403;28;20022;-80
2021/01/06 01:51:28;;;;;;;24.70;14.65;;;-1.30;87.80;;;;;;4973762;28;20396;-79
2021/01/06 01:54:12;;;;;;;30.65;16.70;;;-1.40;87.60;;;;;;4960972;28;20023;-79
2021/01/06 01:57:06;;;;;;;28.60;16.13;;;-1.40;87.50;;;;;;4974789;28;20050;-79
2021/01/06 01:59:58;;;;;;;29.33;16.27;;;-1.40;87.70;;;;;;4974747;28;20018;-78
2021/01/06 02:02:50;;;;;;;31.00;16.30;;;-1.40;87.80;;;;;;4975016;28;20424;-79
2021/01/06 02:05:54;;;;;;;26.77;16.48;;;-1.30;87.80;;;;;;4974667;28;20030;-80
2021/01/06 02:08:37;;;;;;;28.50;13.63;;;-1.30;87.60;;;;;;4973743;28;20031;-79
2021/01/06 02:11:17;;;;;;;20.10;12.13;;;-1.40;87.10;;;;;;4974911;28;20050;-78
2021/01/06 02:13:55;;;;;;;20.75;12.02;;;-1.50;87.00;;;;;;4974473;28;20023;-80
2021/01/06 02:16:33;;;;;;;24.50;13.02;;;-1.50;87.20;;;;;;4975012;28;20072;-80
2021/01/06 02:18:59;;;;;;;18.95;12.13;;;-1.40;87.30;;;;;;4963194;28;20031;-80
2021/01/06 02:21:27;;;;;;;16.50;10.07;;;-1.40;87.10;;;;;;4977578;28;20173;-81
2021/01/06 02:23:56;;;;;;;14.40;8.95;;;-1.40;86.10;;;;;;4956643;28;20045;-80
2021/01/06 02:26:27;;;;;;;13.93;10.00;;;-1.40;86.20;;;;;;4974834;28;20384;-79
2021/01/06 02:28:54;;;;;;;12.75;9.30;;;-1.40;86.00;;;;;;4974287;28;20149;-80
2021/01/06 02:31:20;;;;;;;18.65;10.70;;;-1.40;86.00;;;;;;4974044;28;20106;-79
2021/01/06 02:33:47;;;;;;;17.15;10.10;;;-1.30;86.10;;;;;;4974464;28;20019;-81
2021/01/06 02:36:13;;;;;;;21.45;12.85;;;-1.30;86.10;;;;;;4974209;28;20074;-79
2021/01/06 02:38:40;;;;;;;22.55;14.13;;;-1.30;85.90;;;;;;4974064;28;20546;-82
2021/01/06 02:41:06;;;;;;;24.25;14.98;;;-1.30;85.90;;;;;;4974245;28;20181;-80
2021/01/06 02:43:32;;;;;;;28.58;15.13;;;-1.20;85.90;;;;;;4956696;28;20059;-79
2021/01/06 02:45:59;;;;;;;25.92;14.15;;;-1.20;86.00;;;;;;4956988;28;20049;-80
2021/01/06 02:48:25;;;;;;;22.83;13.77;;;-1.20;85.90;;;;;;4976902;28;20026;-77
2021/01/06 02:50:59;;;;;;;24.27;14.95;;;-1.10;85.90;;;;;;4973952;28;20026;-79
2021/01/06 02:53:32;;;;;;;23.02;13.20;;;-1.10;85.90;;;;;;4973907;28;20444;-79
2021/01/06 02:55:59;;;;;;;24.23;14.73;;;-1.10;85.90;;;;;;4973927;28;20102;-80
2021/01/06 02:58:27;;;;;;;21.95;13.98;;;-1.10;85.80;;;;;;4973780;28;20030;-80
2021/01/06 03:00:54;;;;;;;23.10;13.70;;;-1.10;85.60;;;;;;4974292;28;20022;-80
2021/01/06 03:03:24;;;;;;;20.42;12.38;;;-1.20;85.70;;;;;;4956845;28;20422;-80
2021/01/06 03:06:18;;;;;;;25.67;15.05;;;-1.20;85.70;;;;;;4974483;28;20043;-79
2021/01/06 03:08:43;;;;;;;24.17;14.57;;;-1.30;86.20;;;;;;4974808;28;20027;-81
2021/01/06 03:11:10;;;;;;;22.05;13.10;;;-1.30;86.40;;;;;;4975025;28;20030;-80
2021/01/06 03:13:36;;;;;;;21.73;14.50;;;-1.30;86.20;;;;;;4980418;28;20210;-80
2021/01/06 03:16:02;;;;;;;27.10;14.65;;;-1.20;86.40;;;;;;4981784;28;20026;-79
2021/01/06 03:18:28;;;;;;;25.52;15.20;;;-1.20;86.20;;;;;;4973182;28;20023;-80
2021/01/06 03:21:05;;;;;;;25.30;15.60;;;-1.30;86.20;;;;;;4959750;28;20026;-79
2021/01/06 03:23:51;;;;;;;25.77;14.50;;;-1.30;86.40;;;;;;4973936;28;20097;-80
2021/01/06 03:26:21;;;;;;;24.33;15.05;;;-1.30;86.40;;;;;;4975387;28;20054;-78
2021/01/06 03:28:49;;;;;;;23.80;14.00;;;-1.30;86.40;;;;;;4983749;28;20026;-78
2021/01/06 03:31:34;;;;;;;19.83;12.30;;;-1.30;86.50;;;;;;4979449;28;20368;-79
2021/01/06 03:34:06;;;;;;;27.20;15.40;;;-1.30;86.70;;;;;;4951734;28;20023;-79
2021/01/06 03:36:40;;;;;;;26.27;15.75;;;-1.30;86.70;;;;;;4961177;28;20049;-79
2021/01/06 03:39:10;;;;;;;26.65;15.75;;;-1.20;86.80;;;;;;4966687;28;20031;-78
2021/01/06 03:41:37;;;;;;;28.48;15.85;;;-1.20;86.60;;;;;;4975116;28;20043;-80
2021/01/06 03:44:10;;;;;;;27.42;18.60;;;-1.30;86.60;;;;;;4977574;28;20564;-78
2021/01/06 03:47:01;;;;;;;25.50;14.25;;;-1.30;87.30;;;;;;4977161;28;20573;-79
2021/01/06 03:49:52;;;;;;;28.15;17.33;;;-1.40;86.70;;;;;;4976564;28;20023;-80
2021/01/06 03:52:37;;;;;;;26.38;15.40;;;-1.40;87.20;;;;;;4976454;28;20027;-81
2021/01/06 03:55:34;;;;;;;27.35;15.45;;;-1.50;87.50;;;;;;4976566;28;20038;-80
2021/01/06 03:58:02;;;;;;;31.38;17.05;;;-1.50;87.90;;;;;;4962114;28;20031;-81
2021/01/06 04:00:38;;;;;;;32.15;18.10;;;-1.40;88.00;;;;;;4976462;28;20030;-81
2021/01/06 04:03:15;;;;;;;28.80;16.58;;;-1.40;87.60;;;;;;4976461;28;20158;-81
2021/01/06 04:05:43;;;;;;;28.35;17.70;;;-1.50;87.30;;;;;;4976577;28;20039;-80
2021/01/06 04:08:13;;;;;;;32.13;16.77;;;-1.50;87.50;;;;;;4976087;28;20034;-80
2021/01/06 04:10:46;;;;;;;33.88;19.08;;;-1.50;87.70;;;;;;4976539;28;20026;-80
2021/01/06 04:13:12;;;;;;;33.40;18.90;;;-1.50;87.70;;;;;;4981287;28;20369;-80
2021/01/06 04:15:38;;;;;;;28.00;18.02;;;-1.50;87.60;;;;;;4976913;28;20033;-79
2021/01/06 04:18:04;;;;;;;31.30;18.02;;;-1.50;87.60;;;;;;4975117;28;20481;-80
2021/01/06 04:20:36;;;;;;;33.35;19.63;;;-1.40;87.60;;;;;;4982257;28;20022;-81
2021/01/06 04:23:12;;;;;;;26.38;16.42;;;-1.40;87.40;;;;;;4979011;28;20023;-80
2021/01/06 04:25:43;;;;;;;31.33;18.45;;;-1.40;87.80;;;;;;4964312;28;20043;-81
2021/01/06 04:28:14;;;;;;;28.00;15.82;;;-1.40;87.20;;;;;;4977614;28;20382;-82
2021/01/06 04:31:12;;;;;;;28.00;16.75;;;-1.40;87.00;;;;;;4976747;28;20372;-80
2021/01/06 04:33:40;;;;;;;30.15;17.85;;;-1.40;87.00;;;;;;4952988;28;20090;-79
2021/01/06 04:36:29;;;;;;;29.50;18.02;;;-1.30;86.90;;;;;;4983393;28;20015;-79
2021/01/06 04:39:01;;;;;;;27.08;16.05;;;-1.40;85.60;;;;;;4980123;28;20126;-80
2021/01/06 04:41:38;;;;;;;25.88;16.58;;;-1.60;85.10;;;;;;4967776;28;20460;-81
2021/01/06 04:44:28;;;;;;;27.10;16.02;;;-1.70;85.60;;;;;;4957819;28;20085;-83
2021/01/06 04:47:08;;;;;;;30.15;14.88;;;-1.60;85.50;;;;;;4975415;28;20042;-81
2021/01/06 04:50:01;;;;;;;31.45;18.10;;;-1.70;85.40;;;;;;4975571;28;20019;-80
2021/01/06 04:52:39;;;;;;;28.95;16.70;;;-1.60;85.50;;;;;;4957917;28;20033;-82
2021/01/06 04:55:24;;;;;;;34.00;20.70;;;-1.70;84.80;;;;;;4974976;28;20363;-81
2021/01/06 04:57:58;;;;;;;25.35;15.18;;;-1.80;85.10;;;;;;4970064;28;20034;-81
2021/01/06 05:00:42;;;;;;;31.67;18.02;;;-1.80;85.10;;;;;;4975626;28;20436;-81
2021/01/06 05:03:30;;;;;;;37.25;20.50;;;-1.90;85.10;;;;;;4975371;28;20388;-80
2021/01/06 05:06:33;;;;;;;31.83;15.43;;;-1.90;85.40;;;;;;4976384;28;20065;-80
2021/01/06 05:09:10;;;;;;;35.22;17.98;;;-1.80;85.30;;;;;;4959562;28;20097;-81
2021/01/06 05:11:51;;;;;;;31.90;17.70;;;-1.90;85.30;;;;;;4976051;28;20022;-80
2021/01/06 05:14:22;;;;;;;33.15;16.52;;;-1.80;85.60;;;;;;4983637;28;20519;-81
2021/01/06 05:16:51;;;;;;;25.42;14.20;;;-1.80;85.60;;;;;;4975126;28;20455;-81
2021/01/06 05:19:32;;;;;;;36.08;18.02;;;-1.80;85.60;;;;;;4975350;28;20022;-82
2021/01/06 05:21:59;;;;;;;26.73;15.93;;;-1.80;85.60;;;;;;4975077;28;20031;-82
2021/01/06 05:24:37;;;;;;;29.02;16.50;;;-1.80;85.80;;;;;;4975478;28;20022;-79
2021/01/06 05:27:12;;;;;;;27.83;15.50;;;-1.80;85.90;;;;;;4975168;28;20089;-80
2021/01/06 05:29:50;;;;;;;29.42;15.90;;;-1.70;85.80;;;;;;4975433;28;20078;-80
2021/01/06 05:32:18;;;;;;;27.63;14.93;;;-1.70;85.50;;;;;;4981292;28;20015;-80
2021/01/06 05:34:48;;;;;;;24.75;16.77;;;-1.80;85.20;;;;;;4981818;28;20057;-80
2021/01/06 05:37:16;;;;;;;25.90;13.68;;;-1.90;85.60;;;;;;4975388;28;20019;-79
2021/01/06 05:39:43;;;;;;;28.30;15.80;;;-1.90;86.00;;;;;;4975150;28;20077;-79
2021/01/06 05:42:23;;;;;;;30.55;18.85;;;-2.00;86.00;;;;;;4974604;28;20051;-80
2021/01/06 05:44:51;;;;;;;28.15;15.70;;;-2.00;86.20;;;;;;4974805;28;20057;-79
2021/01/06 05:47:24;;;;;;;31.67;18.20;;;-2.00;86.10;;;;;;4974809;28;20037;-82
2021/01/06 05:49:53;;;;;;;24.23;13.90;;;-2.00;86.50;;;;;;4975049;28;20026;-81
2021/01/06 05:52:21;;;;;;;26.83;16.65;;;-2.00;86.00;;;;;;4975539;28;20065;-80
2021/01/06 05:54:55;;;;;;;24.30;12.02;;;-2.10;87.00;;;;;;4975140;28;20030;-81
2021/01/06 05:57:33;;;;;;;24.98;15.25;;;-2.10;86.60;;;;;;4974853;28;20106;-82
2021/01/06 06:00:29;;;;;;;29.05;15.05;;;-2.10;86.70;;;;;;4961387;28;20031;-80
2021/01/06 06:03:29;;;;;;;30.85;15.85;;;-2.10;86.80;;;;;;4974436;28;20037;-80
2021/01/06 06:06:17;;;;;;;32.70;16.75;;;-2.00;86.90;;;;;;4974397;28;20435;-79
2021/01/06 06:09:12;;;;;;;26.38;15.85;;;-2.00;87.00;;;;;;4962811;28;20015;-81
2021/01/06 06:12:07;;;;;;;28.50;15.30;;;-2.00;86.90;;;;;;4965036;28;20106;-81
2021/01/06 06:15:04;;;;;;;26.88;15.25;;;-2.00;87.20;;;;;;4974140;28;20023;-80
2021/01/06 06:17:41;;;;;;;25.38;14.90;;;-1.90;87.40;;;;;;4974221;28;20484;-81
2021/01/06 06:20:31;;;;;;;;;;;-1.90;87.40;;;;;;4972967;28;20492;-81
2021/01/06 06:23:22;;;;;;;30.27;16.23;;;-1.80;87.30;;;;;;4964320;28;19912;-81
2021/01/06 06:26:24;;;;;;;27.25;15.88;;;-1.70;87.10;;;;;;4969142;28;20046;-80
2021/01/06 06:29:21;;;;;;;30.63;17.42;;;-1.70;86.90;;;;;;4970880;28;20038;-80
2021/01/06 06:31:55;;;;;;;30.20;15.50;;;-1.80;86.90;;;;;;4974493;28;20026;-81
2021/01/06 06:34:31;;;;;;;31.92;15.02;;;-1.80;87.00;;;;;;4974061;28;20030;-81
2021/01/06 06:37:23;;;;;;;31.42;16.67;;;-1.70;87.00;;;;;;4974025;28;20391;-81
2021/01/06 06:39:57;;;;;;;28.40;16.77;;;-1.80;86.90;;;;;;4973119;28;20074;-81
2021/01/06 06:42:31;;;;;;;35.85;17.77;;;-1.80;86.90;;;;;;4975733;28;20503;-82
2021/01/06 06:45:20;;;;;;;28.63;16.77;;;-1.90;87.10;;;;;;4982967;28;20043;-80
2021/01/06 06:48:13;;;;;;;31.13;17.38;;;-1.80;87.40;;;;;;4984592;28;20031;-81
2021/01/06 06:51:14;;;;;;;32.05;16.27;;;-1.70;87.60;;;;;;4986579;28;20451;-82
2021/01/06 06:53:58;;;;;;;36.47;18.13;;;-1.70;87.30;;;;;;4970585;28;20062;-80
2021/01/06 06:56:35;;;;;;;28.48;16.30;;;-1.60;87.10;;;;;;4973482;28;20038;-81
2021/01/06 06:59:06;;;;;;;;;;;-1.60;86.80;;;;;;4976429;28;20038;-82
2021/01/06 07:01:45;;;;;;;30.95;17.13;;;-1.60;86.90;;;;;;4991122;28;19922;-81
2021/01/06 07:04:27;;;;;;;33.72;17.70;;;-1.60;86.40;;;;;;4974740;28;20495;-81
2021/01/06 07:06:58;;;;;;;34.00;18.92;;;-1.60;86.30;;;;;;4974580;28;20062;-80
2021/01/06 07:09:49;;;;;;;37.30;19.13;;;-1.70;86.30;;;;;;4973694;28;20027;-81
2021/01/06 07:12:15;;;;;;;30.33;16.40;;;-1.70;86.30;;;;;;4976382;28;20015;-82
2021/01/06 07:14:59;;;;;;;29.77;18.52;;;-1.60;86.40;;;;;;4974515;28;20389;-80
2021/01/06 07:17:38;;;;;;;28.45;16.38;;;-1.60;86.20;;;;;;4979244;28;20030;-81
2021/01/06 07:20:12;;;;;;;29.08;16.83;;;-1.50;86.00;;;;;;4980729;28;20284;-81
2021/01/06 07:22:42;;;;;;;30.80;16.27;;;-1.50;85.50;;;;;;4977813;28;20023;-81
2021/01/06 07:25:28;;;;;;;36.53;18.05;;;-1.60;85.50;;;;;;4963948;28;20043;-80
2021/01/06 07:28:01;;;;;;;31.88;17.10;;;-1.60;85.90;;;;;;4965906;28;20031;-81
2021/01/06 07:30:42;;;;;;;27.42;14.57;;;-1.60;86.30;;;;;;4959214;28;20101;-81
2021/01/06 07:33:35;;;;;;;23.35;15.38;;;-1.60;87.10;;;;;;4985228;28;20464;-80
2021/01/06 07:36:34;;;;;;;23.10;15.65;;;-1.60;86.60;;;;;;4984032;28;20093;-82
2021/01/06 07:39:01;;;;;;;23.00;13.48;;;-1.60;86.80;;;;;;4962116;28;20071;-80
2021/01/06 07:41:29;;;;;;;21.85;14.15;;;-1.70;86.70;;;;;;4978138;28;20383;-82
2021/01/06 07:44:19;;;;;;;16.65;10.55;;;-1.70;86.80;;;;;;4962744;28;20050;-81
2021/01/06 07:47:24;;;;;;;17.20;10.75;;;-1.80;86.70;;;;;;4981002;28;20066;-83
2021/01/06 07:50:09;;;;;;;16.45;8.80;;;-1.80;86.00;;;;;;4890793;29;20502;-81
2021/01/06 07:52:55;;;;;;;21.58;13.05;;;-1.90;86.40;;;;;;4898496;29;20045;-80
2021/01/06 07:55:35;;;;;;;17.30;9.73;;;-2.00;86.50;;;;;;4898378;29;20064;-80
2021/01/06 07:58:01;;;;;;;20.05;11.02;;;-2.00;87.10;;;;;;4899653;29;20028;-81
2021/01/06 08:01:03;;;;;;;19.05;10.50;;;-1.90;87.40;;;;;;4898559;29;20040;-82
2021/01/06 08:03:44;;;;;;;20.52;11.20;;;-1.80;87.50;;;;;;4882422;29;20442;-82
2021/01/06 08:06:10;;;;;;;17.90;10.88;;;-1.80;87.20;;;;;;4882552;29;20036;-82
2021/01/06 08:08:47;;;;;;;18.40;10.63;;;-1.70;87.30;;;;;;4898601;29;20036;-81
2021/01/06 08:11:16;;;;;;;18.77;11.02;;;-1.60;87.50;;;;;;4905676;29;20021;-80
2021/01/06 08:13:44;;;;;;;18.63;11.38;;;-1.60;87.30;;;;;;4898506;29;20459;-79
2021/01/06 08:16:18;;;;;;;20.42;11.23;;;-1.60;87.50;;;;;;4898865;29;20064;-81
2021/01/06 08:18:59;;;;;;;22.83;13.43;;;-1.50;87.50;;;;;;4898256;29;20427;-81
2021/01/06 08:21:30;;;;;;;20.77;14.15;;;-1.40;87.90;;;;;;4897950;29;20039;-82
2021/01/06 08:24:15;;;;;;;26.10;14.80;;;-1.40;87.20;;;;;;4898223;29;20032;-81
2021/01/06 08:26:53;;;;;;;24.60;14.30;;;-1.50;87.10;;;;;;4952341;28;20066;-79
2021/01/06 08:29:25;;;;;;;23.58;13.18;;;-1.50;86.70;;;;;;4980566;28;20023;-81
2021/01/06 08:32:12;;;;;;;21.35;12.77;;;-1.50;86.90;;;;;;4978690;28;20022;-81
2021/01/06 08:34:41;;;;;;;23.88;13.68;;;-1.60;86.60;;;;;;4973554;28;20504;-81
2021/01/06 08:37:13;;;;;;;24.88;13.27;;;-1.70;86.90;;;;;;4979232;28;20034;-81
2021/01/06 08:39:52;;;;;;;25.33;16.33;;;-1.70;87.60;;;;;;4977248;28;20030;-80
2021/01/06 08:42:27;;;;;;;17.90;11.80;;;-1.60;87.60;;;;;;4979470;28;20125;-80
2021/01/06 08:45:01;;;;;;;23.88;16.23;;;-1.60;87.60;;;;;;4977691;28;20492;-80
2021/01/06 08:47:39;;;;;;;24.65;14.38;;;-1.50;86.70;;;;;;4978469;28;20149;-80
2021/01/06 08:50:17;;;;;;;26.48;14.93;;;-1.50;86.30;;;;;;4976157;28;20023;-81
2021/01/06 08:52:53;;;;;;;24.48;14.98;;;-1.50;85.90;;;;;;4967151;28;20027;-81
2021/01/06 08:55:21;;;;;;;27.35;16.95;;;-1.60;85.10;;;;;;4973364;28;20101;-83
2021/01/06 08:58:01;;;;;;;29.73;17.25;;;-1.70;85.20;;;;;;4983169;28;20034;-82
2021/01/06 09:00:29;;;;;;;26.33;16.27;;;-1.80;85.70;;;;;;4976678;28;20023;-79
2021/01/06 09:03:09;;;;;;;22.02;13.23;;;-1.80;85.90;;;;;;4977570;28;20031;-81
2021/01/06 09:06:12;;;;;;;21.77;12.90;;;-1.90;85.50;;;;;;4979344;28;20023;-81
2021/01/06 09:08:38;;;;;;;29.52;15.77;;;-1.90;85.70;;;;;;4964217;28;20031;-81
2021/01/06 09:11:09;;;;;;;21.15;13.18;;;-2.00;86.10;;;;;;4976434;28;20035;-81
2021/01/06 09:13:44;;;;;;;26.73;14.93;;;-1.90;86.40;;;;;;4983564;28;20041;-80
2021/01/06 09:16:49;;;;;;;24.90;13.68;;;-1.80;86.40;;;;;;4974562;28;20424;-81
2021/01/06 09:19:33;;;;;;;27.77;15.30;;;-1.80;85.50;;;;;;4974718;28;20034;-82
2021/01/06 09:22:00;;;;;;;23.25;14.23;;;-1.90;85.30;;;;;;4977351;28;20026;-82
2021/01/06 09:24:35;;;;;;;27.08;15.88;;;-1.80;85.50;;;;;;4978951;28;20021;-80
2021/01/06 09:27:21;;;;;;;24.55;13.40;;;-1.80;85.70;;;;;;4977441;28;20031;-83
2021/01/06 09:29:48;;;;;;;25.63;14.38;;;-1.80;85.60;;;;;;4961914;28;20027;-81
2021/01/06 09:32:19;;;;;;;26.63;15.43;;;-1.70;85.30;;;;;;4967445;28;20031;-81
2021/01/06 09:34:56;;;;;;;23.52;13.32;;;-1.70;85.20;;;;;;4986210;28;20031;-80
2021/01/06 09:37:29;;;;;;;22.02;14.43;;;-1.70;84.80;;;;;;4947078;29;20441;-80
2021/01/06 09:40:01;;;;;;;25.30;15.18;;;-1.70;84.80;;;;;;4977598;28;20047;-80
2021/01/06 09:42:26;;;;;;;26.55;15.43;;;-1.70;84.70;;;;;;4976437;28;20485;-81
2021/01/06 09:44:52;;;;;;;24.40;14.43;;;-1.70;84.30;;;;;;4978021;28;20040;-80
2021/01/06 09:47:34;;;;;;;25.65;16.27;;;-1.70;83.50;;;;;;4959415;28;20077;-81
2021/01/06 09:50:21;;;;;;;23.13;14.20;;;-1.70;83.30;;;;;;4977619;28;20022;-81
2021/01/06 09:52:50;;;;;;;22.73;13.60;;;-1.70;83.10;;;;;;4977648;28;20379;-83
2021/01/06 09:55:20;;;;;;;26.73;15.48;;;-1.80;83.30;;;;;;4945063;29;20496;-79
2021/01/06 09:58:10;;;;;;;28.50;17.52;;;-1.80;83.80;;;;;;4981225;28;20022;-80
2021/01/06 10:00:50;;;;;;;29.40;15.75;;;-1.70;84.20;;;;;;4979031;28;20377;-83
2021/01/06 10:03:16;;;;;;;31.40;18.40;;;-1.70;84.50;;;;;;4958960;28;20030;-80
2021/01/06 10:06:01;;;;;;;29.20;15.02;;;-1.70;84.80;;;;;;4957813;28;20516;-81
2021/01/06 10:08:52;;;;;;;26.10;16.75;;;-1.60;85.00;;;;;;4967608;28;20019;-81
2021/01/06 10:11:39;;;;;;;31.08;16.95;;;-1.60;85.00;;;;;;4958335;28;20027;-79
2021/01/06 10:14:16;;;;;;;27.13;15.77;;;-1.50;85.00;;;;;;4970700;28;20109;-81
2021/01/06 10:16:53;;;;;;;29.73;18.55;;;-1.60;84.70;;;;;;4983453;28;20061;-79
2021/01/06 10:19:40;;;;;;;28.93;16.93;;;-1.50;84.80;;;;;;4965204;28;20027;-79
2021/01/06 10:22:33;;;;;;;32.65;17.70;;;-1.40;84.60;;;;;;4969237;28;20265;-81
2021/01/06 10:25:30;;;;;;;28.00;15.10;;;-1.40;84.40;;;;;;4970534;28;20050;-79
2021/01/06 10:27:57;;;;;;;23.75;15.85;;;-1.50;84.40;;;;;;4975460;28;20459;-81
2021/01/06 10:30:25;;;;;;;28.00;16.35;;;-1.60;84.60;;;;;;4957635;28;20467;-80
2021/01/06 10:33:14;;;;;;;27.90;17.75;;;-1.50;85.00;;;;;;4974081;28;20073;-80
2021/01/06 10:35:58;;;;;;;33.15;18.27;;;-1.50;85.10;;;;;;4972903;28;20019;-80
2021/01/06 10:38:29;;;;;;;26.85;16.58;;;-1.50;85.00;;;;;;4977201;28;20477;-81
2021/01/06 10:41:28;;;;;;;28.90;15.70;;;-1.40;85.00;;;;;;4962118;28;20496;-81
2021/01/06 10:44:02;;;;;;;26.50;15.50;;;-1.30;84.90;;;;;;4972637;28;20031;-81
2021/01/06 10:46:45;;;;;;;26.30;16.50;;;-1.20;84.80;;;;;;4958050;28;20066;-81
2021/01/06 10:49:19;;;;;;;28.02;16.45;;;-1.00;84.50;;;;;;4973113;28;20376;-81
2021/01/06 10:51:57;;;;;;;32.65;14.77;;;-0.90;83.70;;;;;;4982039;28;20023;-85
2021/01/06 10:54:35;;;;;;;23.45;13.75;;;-0.80;83.20;;;;;;4974132;28;20031;-85
2021/01/06 10:57:08;;;;;;;25.42;14.50;;;-0.80;82.40;;;;;;4973861;28;20026;-84
2021/01/06 10:59:34;;;;;;;24.70;15.40;;;-0.80;82.10;;;;;;4972976;28;20109;-83
2021/01/06 11:02:14;;;;;;;28.80;13.18;;;-0.90;82.20;;;;;;4976299;28;20061;-83
2021/01/06 11:05:03;;;;;;;29.00;14.88;;;-1.00;81.80;;;;;;4976403;28;20051;-80
2021/01/06 11:07:35;;;;;;;29.77;16.13;;;-1.10;82.60;;;;;;4975444;28;20031;-81
2021/01/06 11:10:04;;;;;;;25.83;16.35;;;-1.20;82.90;;;;;;4973142;28;20465;-84
2021/01/06 11:12:30;;;;;;;30.40;16.23;;;-1.30;83.70;;;;;;4974746;28;20023;-84
2021/01/06 11:15:02;;;;;;;27.15;16.92;;;-1.20;84.20;;;;;;4974418;28;20038;-81
2021/01/06 11:17:35;;;;;;;31.92;19.63;;;-1.10;84.40;;;;;;4975715;28;20117;-81
2021/01/06 11:20:35;;;;;;;29.30;16.92;;;-1.00;84.40;;;;;;4979293;28;20015;-86
2021/01/06 11:23:44;;;;;;;35.40;18.38;;;-0.80;84.50;;;;;;4966085;28;20035;-77
2021/01/06 11:26:30;;;;;;;28.42;18.70;;;-0.70;84.10;;;;;;4919234;28;20081;-78
2021/01/06 11:29:22;;;;;;;31.85;18.52;;;-0.70;84.40;;;;;;4962938;28;20464;-84
2021/01/06 11:32:00;;;;;;;35.80;20.45;;;-0.80;83.30;;;;;;4980122;28;20023;-83
2021/01/06 11:34:27;;;;;;;;;;;-0.80;83.30;;;;;;4986922;28;20023;-85
2021/01/06 11:36:59;;;;;;;34.67;17.88;;;-0.80;83.60;;;;;;4976918;28;19942;-82
2021/01/06 11:39:27;;;;;;;32.17;17.00;;;-0.80;83.50;;;;;;4982094;28;20031;-84
2021/01/06 11:42:08;;;;;;;31.20;18.75;;;-0.80;83.20;;;;;;4989561;28;20019;-83
2021/01/06 11:44:37;;;;;;;35.42;19.42;;;-0.90;82.80;;;;;;4987187;28;20085;-82
2021/01/06 11:47:25;;;;;;;37.55;21.58;;;-0.90;82.70;;;;;;4987632;28;20034;-84
2021/01/06 11:50:03;;;;;;;38.33;21.15;;;-0.80;82.70;;;;;;4967105;28;20023;-82
2021/01/06 11:52:36;;;;;;;34.60;20.67;;;-0.70;82.20;;;;;;4973421;28;20480;-79
2021/01/06 11:55:20;;;;;;;39.85;21.52;;;-0.80;82.00;;;;;;4974228;28;20018;-83
2021/01/06 11:57:55;;;;;;;33.72;18.77;;;-0.70;81.30;;;;;;4973072;28;20038;-81
2021/01/06 12:00:59;;;;;;;28.35;17.02;;;-0.70;80.50;;;;;;4974804;28;20113;-84
2021/01/06 12:03:57;;;;;;;27.30;16.17;;;-0.70;80.90;;;;;;4976617;28;20026;-85
2021/01/06 12:06:55;;;;;;;27.83;17.13;;;-0.70;81.70;;;;;;4980088;28;20523;-81
2021/01/06 12:09:38;;;;;;;28.80;15.95;;;-0.70;80.10;;;;;;4976914;28;20027;-84
2021/01/06 12:12:25;;;;;;;30.05;16.63;;;-0.70;80.30;;;;;;4968611;28;20029;-83
2021/01/06 12:14:57;;;;;;;28.73;15.48;;;-0.70;80.00;;;;;;4976138;28;20113;-85
2021/01/06 12:17:33;;;;;;;29.88;17.60;;;-0.80;79.60;;;;;;4981582;28;20019;-78
2021/01/06 12:20:07;;;;;;;31.63;16.20;;;-0.90;80.10;;;;;;4968515;28;20504;-80
2021/01/06 12:22:34;;;;;;;29.13;18.80;;;-0.90;80.80;;;;;;4973429;28;20015;-84
2021/01/06 12:25:04;;;;;;;29.13;17.92;;;-0.80;80.90;;;;;;4976067;28;20039;-85
2021/01/06 12:27:48;;;;;;;32.60;17.77;;;-0.70;80.60;;;;;;4957828;28;20027;-80
2021/01/06 12:30:17;;;;;;;25.13;15.68;;;-0.70;80.80;;;;;;4957247;28;20111;-81
2021/01/06 12:32:55;;;;;;;29.83;17.85;;;-0.60;80.10;;;;;;4975041;28;20481;-82
2021/01/06 12:35:38;;;;;;;27.52;13.35;;;-0.60;79.60;;;;;;4956094;28;20143;-78
2021/01/06 12:38:10;;;;;;;27.52;14.93;;;-0.60;78.40;;;;;;4964656;28;20499;-81
2021/01/06 12:41:03;;;;;;;32.00;14.25;;;-1.00;78.10;;;;;;4975085;28;20022;-81
2021/01/06 12:43:45;;;;;;;23.88;14.52;;;-1.30;78.90;;;;;;4971698;28;20022;-84
2021/01/06 12:46:28;;;;;;;27.13;15.02;;;-1.40;79.70;;;;;;4975819;28;20034;-82
2021/01/06 12:49:06;;;;;;;26.77;14.63;;;-1.40;80.20;;;;;;4976842;28;20018;-85
2021/01/06 12:51:35;;;;;;;26.13;13.90;;;-1.30;80.30;;;;;;4960113;28;20030;-86
2021/01/06 12:54:09;;;;;;;23.42;13.63;;;-1.30;80.40;;;;;;4978101;28;20022;-85
2021/01/06 12:56:40;;;;;;;25.67;13.85;;;-1.50;80.50;;;;;;4977290;28;20015;-84
2021/01/06 12:59:21;;;;;;;26.45;14.63;;;-1.60;81.20;;;;;;4978221;28;20090;-85
2021/01/06 13:01:59;;;;;;;24.98;14.23;;;-1.70;81.80;;;;;;4964400;28;20022;-86
2021/01/06 13:04:38;;;;;;;31.02;14.25;;;-1.70;82.20;;;;;;4979199;28;20384;-86
2021/01/06 13:07:15;;;;;;;24.75;14.45;;;-1.70;82.40;;;;;;4982603;28;20605;-85
2021/01/06 13:09:54;;;;;;;22.77;12.70;;;-1.70;82.70;;;;;;4986610;28;20023;-83
2021/01/06 13:12:26;;;;;;;24.30;14.40;;;-1.70;82.10;;;;;;4995358;28;20034;-83
2021/01/06 13:15:02;;;;;;;25.48;15.13;;;-1.60;82.10;;;;;;4963065;28;20329;-82